KFLL/FLL METAR and TAF weather

Enter ICAO airport designator
Station Type Date Time Source
KFLL METAR 2021/01/17 18:53 UTC NOAA

KFLL 171853Z VRB04KT 10SM SCT060 BKN250 21/08 A3003 RMK AO2 SLP167 T02060083


Station Type Date Time Source
KFLL Decoded METAR 2021/01/17 18:53 UTC NOAA

FORT LAUDERDALE/HOLLYWOOD, FL, United States (KFLL) 26-04N 080-09W 30M
Jan 17, 2021 - 01:53 PM EST / 2021.01.17 1853 UTC
Wind: Variable at 5 MPH (4 KT):0
Visibility: 10 mile(s):0
Sky conditions: mostly cloudy
Temperature: 69.1 F (20.6 C)
Dew Point: 46.9 F (8.3 C)
Relative Humidity: 45%
Pressure (altimeter): 30.03 in. Hg (1016 hPa)
ob: KFLL 171853Z VRB04KT 10SM SCT060 BKN250 21/08 A3003 RMK AO2 SLP167 T02060083
cycle: 19

Station Type Date Time Source
KFLL TAF 2021/01/17 18:58 UTC NOAA

TAF KFLL 171757Z 1718/1824 VRB04KT P6SM BKN060 BKN250
FM181300 32008KT P6SM SCT045 BKN250

Example: see airport list